sensor_id;sensor_type;location;lat;lon;timestamp;pressure;altitude;pressure_sealevel;temperature;humidity
20909;BME280;10614;53.198;6.570;2024-01-15T00:01:56;99984.13;;;0.96;100.00
20909;BME280;10614;53.198;6.570;2024-01-15T00:03:59;99978.97;;;0.94;100.00
20909;BME280;10614;53.198;6.570;2024-01-15T00:06:01;99968.16;;;0.65;100.00
20909;BME280;10614;53.198;6.570;2024-01-15T00:08:03;99969.22;;;0.48;100.00
20909;BME280;10614;53.198;6.570;2024-01-15T00:10:08;99930.00;;;0.11;100.00
20909;BME280;10614;53.198;6.570;2024-01-15T00:12:11;99920.47;;;0.14;100.00
20909;BME280;10614;53.198;6.570;2024-01-15T00:14:13;99897.31;;;0.02;100.00
20909;BME280;10614;53.198;6.570;2024-01-15T00:16:14;99911.03;;;0.10;100.00
20909;BME280;10614;53.198;6.570;2024-01-15T00:18:16;99941.03;;;0.28;100.00
20909;BME280;10614;53.198;6.570;2024-01-15T00:20:18;99897.31;;;0.04;100.00
20909;BME280;10614;53.198;6.570;2024-01-15T00:22:20;99940.19;;;0.26;100.00
20909;BME280;10614;53.198;6.570;2024-01-15T00:24:22;99931.53;;;0.27;100.00
20909;BME280;10614;53.198;6.570;2024-01-15T00:26:25;99917.72;;;0.27;100.00
20909;BME280;10614;53.198;6.570;2024-01-15T00:28:27;99889.50;;;0.10;100.00
20909;BME280;10614;53.198;6.570;2024-01-15T00:30:29;99914.25;;;0.31;100.00
20909;BME280;10614;53.198;6.570;2024-01-15T00:32:31;99885.13;;;0.13;100.00
20909;BME280;10614;53.198;6.570;2024-01-15T00:34:32;99879.09;;;0.11;100.00
20909;BME280;10614;53.198;6.570;2024-01-15T00:36:35;99894.38;;;0.30;100.00
20909;BME280;10614;53.198;6.570;2024-01-15T00:38:37;99898.84;;;0.18;100.00
20909;BME280;10614;53.198;6.570;2024-01-15T00:40:39;99871.34;;;0.11;100.00
20909;BME280;10614;53.198;6.570;2024-01-15T00:42:42;99882.34;;;0.27;100.00
20909;BME280;10614;53.198;6.570;2024-01-15T00:44:44;99904.56;;;0.44;100.00
20909;BME280;10614;53.198;6.570;2024-01-15T00:46:46;99894.22;;;0.42;100.00
20909;BME280;10614;53.198;6.570;2024-01-15T00:48:47;99881.31;;;0.40;100.00
20909;BME280;10614;53.198;6.570;2024-01-15T00:50:48;99854.84;;;0.18;100.00
20909;BME280;10614;53.198;6.570;2024-01-15T00:52:50;99894.25;;;0.40;100.00
20909;BME280;10614;53.198;6.570;2024-01-15T00:54:51;99899.34;;;0.47;100.00
20909;BME280;10614;53.198;6.570;2024-01-15T00:56:53;99888.97;;;0.47;100.00
20909;BME280;10614;53.198;6.570;2024-01-15T00:58:56;99865.97;;;0.28;100.00
20909;BME280;10614;53.198;6.570;2024-01-15T01:00:58;99889.88;;;0.46;100.00
20909;BME280;10614;53.198;6.570;2024-01-15T01:03:00;99895.00;;;0.49;100.00
20909;BME280;10614;53.198;6.570;2024-01-15T01:05:03;99855.50;;;0.36;100.00
20909;BME280;10614;53.198;6.570;2024-01-15T01:07:05;99889.75;;;0.55;100.00
20909;BME280;10614;53.198;6.570;2024-01-15T01:09:06;99876.78;;;0.55;100.00
20909;BME280;10614;53.198;6.570;2024-01-15T01:11:12;99889.84;;;0.47;100.00
20909;BME280;10614;53.198;6.570;2024-01-15T01:13:14;99832.41;;;0.20;100.00
20909;BME280;10614;53.198;6.570;2024-01-15T01:15:17;99850.44;;;0.25;100.00
20909;BME280;10614;53.198;6.570;2024-01-15T01:17:21;99851.22;;;0.33;100.00
20909;BME280;10614;53.198;6.570;2024-01-15T01:19:23;99877.84;;;0.41;100.00
20909;BME280;10614;53.198;6.570;2024-01-15T01:21:26;99840.75;;;0.39;100.00
20909;BME280;10614;53.198;6.570;2024-01-15T01:23:32;99855.25;;;0.53;100.00
20909;BME280;10614;53.198;6.570;2024-01-15T01:25:32;99850.97;;;0.50;100.00
20909;BME280;10614;53.198;6.570;2024-01-15T01:27:35;99832.78;;;0.53;100.00
20909;BME280;10614;53.198;6.570;2024-01-15T01:29:37;99825.06;;;0.52;100.00
20909;BME280;10614;53.198;6.570;2024-01-15T01:31:44;99834.53;;;0.53;100.00
20909;BME280;10614;53.198;6.570;2024-01-15T01:33:45;99837.88;;;0.58;100.00
20909;BME280;10614;53.198;6.570;2024-01-15T01:35:46;99820.69;;;0.54;100.00
20909;BME280;10614;53.198;6.570;2024-01-15T01:37:48;99846.22;;;0.78;100.00
20909;BME280;10614;53.198;6.570;2024-01-15T01:39:51;99820.53;;;0.65;100.00
20909;BME280;10614;53.198;6.570;2024-01-15T01:41:53;99844.47;;;0.80;100.00
20909;BME280;10614;53.198;6.570;2024-01-15T01:43:55;99798.94;;;0.66;100.00
20909;BME280;10614;53.198;6.570;2024-01-15T01:45:57;99808.41;;;0.68;100.00
20909;BME280;10614;53.198;6.570;2024-01-15T01:48:04;99796.31;;;0.67;100.00
20909;BME280;10614;53.198;6.570;2024-01-15T01:50:07;99780.91;;;0.58;100.00
20909;BME280;10614;53.198;6.570;2024-01-15T01:52:12;99825.34;;;0.88;100.00
20909;BME280;10614;53.198;6.570;2024-01-15T01:54:14;99798.75;;;0.76;100.00
20909;BME280;10614;53.198;6.570;2024-01-15T01:56:17;99824.53;;;0.84;100.00
20909;BME280;10614;53.198;6.570;2024-01-15T01:58:19;99788.53;;;0.69;100.00
20909;BME280;10614;53.198;6.570;2024-01-15T02:00:21;99821.09;;;0.83;100.00
20909;BME280;10614;53.198;6.570;2024-01-15T02:02:23;99792.81;;;0.70;100.00
20909;BME280;10614;53.198;6.570;2024-01-15T02:04:28;99801.41;;;0.72;100.00
20909;BME280;10614;53.198;6.570;2024-01-15T02:06:31;99839.91;;;0.93;100.00
20909;BME280;10614;53.198;6.570;2024-01-15T02:08:33;99790.81;;;0.86;100.00
20909;BME280;10614;53.198;6.570;2024-01-15T02:10:36;99814.06;;;0.92;100.00
20909;BME280;10614;53.198;6.570;2024-01-15T02:12:37;99834.47;;;1.10;100.00
20909;BME280;10614;53.198;6.570;2024-01-15T02:14:39;99809.56;;;1.00;100.00
20909;BME280;10614;53.198;6.570;2024-01-15T02:16:42;99791.66;;;0.89;100.00
20909;BME280;10614;53.198;6.570;2024-01-15T02:18:43;99836.06;;;1.17;100.00
20909;BME280;10614;53.198;6.570;2024-01-15T02:20:51;99817.22;;;1.08;100.00
20909;BME280;10614;53.198;6.570;2024-01-15T02:22:53;99823.28;;;1.08;100.00
20909;BME280;10614;53.198;6.570;2024-01-15T02:24:56;99826.72;;;1.07;100.00
20909;BME280;10614;53.198;6.570;2024-01-15T02:26:58;99813.91;;;1.01;100.00
20909;BME280;10614;53.198;6.570;2024-01-15T02:29:00;99813.16;;;0.91;100.00
20909;BME280;10614;53.198;6.570;2024-01-15T02:31:01;99844.88;;;1.07;100.00
20909;BME280;10614;53.198;6.570;2024-01-15T02:33:03;99844.94;;;1.02;100.00
20909;BME280;10614;53.198;6.570;2024-01-15T02:35:06;99813.28;;;0.85;100.00
20909;BME280;10614;53.198;6.570;2024-01-15T02:37:10;99839.06;;;0.93;100.00
20909;BME280;10614;53.198;6.570;2024-01-15T02:39:13;99814.34;;;0.73;100.00
20909;BME280;10614;53.198;6.570;2024-01-15T02:41:20;99853.81;;;0.89;100.00
20909;BME280;10614;53.198;6.570;2024-01-15T02:43:22;99830.75;;;0.74;100.00
20909;BME280;10614;53.198;6.570;2024-01-15T02:45:23;99852.94;;;0.89;100.00
20909;BME280;10614;53.198;6.570;2024-01-15T02:47:25;99859.94;;;0.85;100.00
20909;BME280;10614;53.198;6.570;2024-01-15T02:49:28;99852.25;;;0.79;100.00
20909;BME280;10614;53.198;6.570;2024-01-15T02:51:30;99807.88;;;0.46;100.00
20909;BME280;10614;53.198;6.570;2024-01-15T02:53:36;99817.16;;;0.58;100.00
20909;BME280;10614;53.198;6.570;2024-01-15T02:55:37;99833.50;;;0.63;100.00
20909;BME280;10614;53.198;6.570;2024-01-15T02:57:41;99806.94;;;0.52;100.00
20909;BME280;10614;53.198;6.570;2024-01-15T02:59:43;99802.63;;;0.51;100.00
20909;BME280;10614;53.198;6.570;2024-01-15T03:01:45;99800.13;;;0.45;100.00
20909;BME280;10614;53.198;6.570;2024-01-15T03:03:46;99820.78;;;0.48;100.00
20909;BME280;10614;53.198;6.570;2024-01-15T03:05:47;99809.63;;;0.44;100.00
20909;BME280;10614;53.198;6.570;2024-01-15T03:07:49;99783.13;;;0.28;100.00
20909;BME280;10614;53.198;6.570;2024-01-15T03:09:51;99842.16;;;0.60;100.00
20909;BME280;10614;53.198;6.570;2024-01-15T03:11:53;99836.19;;;0.57;100.00
20909;BME280;10614;53.198;6.570;2024-01-15T03:13:56;99801.91;;;0.43;100.00
20909;BME280;10614;53.198;6.570;2024-01-15T03:15:58;99843.81;;;0.66;100.00
20909;BME280;10614;53.198;6.570;2024-01-15T03:18:00;99828.28;;;0.65;100.00
20909;BME280;10614;53.198;6.570;2024-01-15T03:20:01;99848.03;;;0.73;100.00
20909;BME280;10614;53.198;6.570;2024-01-15T03:22:06;99840.22;;;0.75;100.00
20909;BME280;10614;53.198;6.570;2024-01-15T03:24:09;99825.78;;;0.60;100.00
20909;BME280;10614;53.198;6.570;2024-01-15T03:26:11;99817.88;;;0.69;100.00
20909;BME280;10614;53.198;6.570;2024-01-15T03:28:13;99850.47;;;0.81;100.00
20909;BME280;10614;53.198;6.570;2024-01-15T03:30:17;99834.28;;;0.68;100.00
20909;BME280;10614;53.198;6.570;2024-01-15T03:32:18;99812.00;;;0.58;100.00
20909;BME280;10614;53.198;6.570;2024-01-15T03:34:21;99823.13;;;0.63;100.00
20909;BME280;10614;53.198;6.570;2024-01-15T03:36:24;99851.41;;;0.78;100.00
20909;BME280;10614;53.198;6.570;2024-01-15T03:38:28;99830.09;;;0.61;100.00
20909;BME280;10614;53.198;6.570;2024-01-15T03:40:31;99831.72;;;0.65;100.00
20909;BME280;10614;53.198;6.570;2024-01-15T03:42:33;99825.75;;;0.61;100.00
20909;BME280;10614;53.198;6.570;2024-01-15T03:44:34;99854.91;;;0.74;100.00
20909;BME280;10614;53.198;6.570;2024-01-15T03:46:40;99849.78;;;0.73;100.00
20909;BME280;10614;53.198;6.570;2024-01-15T03:48:42;99817.22;;;0.55;100.00
20909;BME280;10614;53.198;6.570;2024-01-15T03:50:44;99820.59;;;0.60;100.00
20909;BME280;10614;53.198;6.570;2024-01-15T03:52:46;99805.25;;;0.49;100.00
20909;BME280;10614;53.198;6.570;2024-01-15T03:54:51;99835.91;;;0.74;100.00
20909;BME280;10614;53.198;6.570;2024-01-15T03:56:53;99824.72;;;0.73;100.00
20909;BME280;10614;53.198;6.570;2024-01-15T03:58:56;99830.72;;;0.75;100.00
20909;BME280;10614;53.198;6.570;2024-01-15T04:00:56;99824.72;;;0.72;100.00
20909;BME280;10614;53.198;6.570;2024-01-15T04:03:00;99842.63;;;0.86;100.00
20909;BME280;10614;53.198;6.570;2024-01-15T04:05:04;99818.41;;;0.88;100.00
20909;BME280;10614;53.198;6.570;2024-01-15T04:07:05;99826.94;;;0.96;100.00
20909;BME280;10614;53.198;6.570;2024-01-15T04:09:07;99823.47;;;0.96;100.00
20909;BME280;10614;53.198;6.570;2024-01-15T04:11:09;99789.06;;;0.89;100.00
20909;BME280;10614;53.198;6.570;2024-01-15T04:13:11;99825.72;;;1.16;100.00
20909;BME280;10614;53.198;6.570;2024-01-15T04:15:17;99830.09;;;1.12;100.00
20909;BME280;10614;53.198;6.570;2024-01-15T04:17:19;99835.34;;;1.08;100.00
20909;BME280;10614;53.198;6.570;2024-01-15T04:19:23;99882.53;;;1.28;100.00
20909;BME280;10614;53.198;6.570;2024-01-15T04:21:24;99863.81;;;1.11;100.00
20909;BME280;10614;53.198;6.570;2024-01-15T04:23:27;99862.69;;;1.25;100.00
20909;BME280;10614;53.198;6.570;2024-01-15T04:25:29;99869.84;;;1.13;100.00
20909;BME280;10614;53.198;6.570;2024-01-15T04:27:31;99838.91;;;1.02;100.00
20909;BME280;10614;53.198;6.570;2024-01-15T04:29:33;99804.63;;;0.88;100.00
20909;BME280;10614;53.198;6.570;2024-01-15T04:31:35;99809.56;;;1.00;100.00
20909;BME280;10614;53.198;6.570;2024-01-15T04:33:37;99814.91;;;0.92;100.00
20909;BME280;10614;53.198;6.570;2024-01-15T04:35:45;99778.94;;;0.74;100.00
20909;BME280;10614;53.198;6.570;2024-01-15T04:37:47;99803.84;;;0.81;100.00
20909;BME280;10614;53.198;6.570;2024-01-15T04:39:49;99791.19;;;0.64;100.00
20909;BME280;10614;53.198;6.570;2024-01-15T04:41:53;99813.53;;;0.70;100.00
20909;BME280;10614;53.198;6.570;2024-01-15T04:43:57;99805.13;;;0.57;100.00
20909;BME280;10614;53.198;6.570;2024-01-15T04:46:01;99834.19;;;0.74;100.00
20909;BME280;10614;53.198;6.570;2024-01-15T04:48:05;99819.59;;;0.69;100.00
20909;BME280;10614;53.198;6.570;2024-01-15T04:50:08;99789.72;;;0.48;100.00
20909;BME280;10614;53.198;6.570;2024-01-15T04:52:13;99799.16;;;0.52;100.00
20909;BME280;10614;53.198;6.570;2024-01-15T04:54:15;99818.78;;;0.67;100.00
20909;BME280;10614;53.198;6.570;2024-01-15T04:56:19;99801.78;;;0.50;100.00
20909;BME280;10614;53.198;6.570;2024-01-15T04:58:21;99823.19;;;0.60;100.00
20909;BME280;10614;53.198;6.570;2024-01-15T05:00:25;99783.78;;;0.39;100.00
20909;BME280;10614;53.198;6.570;2024-01-15T05:02:27;99805.06;;;0.60;100.00
20909;BME280;10614;53.198;6.570;2024-01-15T05:04:28;99795.69;;;0.51;100.00
20909;BME280;10614;53.198;6.570;2024-01-15T05:06:29;99770.97;;;0.32;100.00
20909;BME280;10614;53.198;6.570;2024-01-15T05:08:33;99792.31;;;0.49;100.00
20909;BME280;10614;53.198;6.570;2024-01-15T05:10:34;99824.22;;;0.50;100.00
20909;BME280;10614;53.198;6.570;2024-01-15T05:12:37;99805.25;;;0.48;100.00
20909;BME280;10614;53.198;6.570;2024-01-15T05:14:39;99816.53;;;0.44;100.00
20909;BME280;10614;53.198;6.570;2024-01-15T05:16:46;99788.38;;;0.22;100.00
20909;BME280;10614;53.198;6.570;2024-01-15T05:18:48;99776.41;;;0.16;100.00
20909;BME280;10614;53.198;6.570;2024-01-15T05:20:50;99815.81;;;0.34;100.00
20909;BME280;10614;53.198;6.570;2024-01-15T05:22:52;99807.34;;;0.24;100.00
20909;BME280;10614;53.198;6.570;2024-01-15T05:24:57;99814.16;;;0.30;100.00
20909;BME280;10614;53.198;6.570;2024-01-15T05:26:58;99813.34;;;0.26;100.00
20909;BME280;10614;53.198;6.570;2024-01-15T05:29:00;99776.53;;;0.06;100.00
20909;BME280;10614;53.198;6.570;2024-01-15T05:31:04;99782.69;;;-0.03;100.00
20909;BME280;10614;53.198;6.570;2024-01-15T05:33:04;99801.50;;;0.10;100.00
20909;BME280;10614;53.198;6.570;2024-01-15T05:35:07;99800.59;;;0.12;100.00
20909;BME280;10614;53.198;6.570;2024-01-15T05:37:08;99804.88;;;0.13;100.00
20909;BME280;10614;53.198;6.570;2024-01-15T05:39:10;99796.41;;;0.04;100.00
20909;BME280;10614;53.198;6.570;2024-01-15T05:41:13;99794.72;;;0.03;100.00
20909;BME280;10614;53.198;6.570;2024-01-15T05:43:15;99794.66;;;0.04;100.00
20909;BME280;10614;53.198;6.570;2024-01-15T05:45:17;99788.72;;;-0.03;100.00
20909;BME280;10614;53.198;6.570;2024-01-15T05:47:19;99792.13;;;0.01;100.00
20909;BME280;10614;53.198;6.570;2024-01-15T05:49:21;99785.25;;;0.00;100.00
20909;BME280;10614;53.198;6.570;2024-01-15T05:51:24;99777.53;;;-0.03;100.00
20909;BME280;10614;53.198;6.570;2024-01-15T05:53:26;99784.38;;;-0.01;100.00
20909;BME280;10614;53.198;6.570;2024-01-15T05:55:28;99785.22;;;0.02;100.00
20909;BME280;10614;53.198;6.570;2024-01-15T05:57:32;99756.22;;;-0.20;100.00
20909;BME280;10614;53.198;6.570;2024-01-15T05:59:35;99779.97;;;0.08;100.00
20909;BME280;10614;53.198;6.570;2024-01-15T06:01:36;99814.38;;;0.14;100.00
20909;BME280;10614;53.198;6.570;2024-01-15T06:03:40;99790.91;;;0.27;100.00
20909;BME280;10614;53.198;6.570;2024-01-15T06:05:45;99791.75;;;0.27;100.00
20909;BME280;10614;53.198;6.570;2024-01-15T06:07:50;99790.91;;;0.27;100.00
20909;BME280;10614;53.198;6.570;2024-01-15T06:09:51;99801.25;;;0.28;100.00
20909;BME280;10614;53.198;6.570;2024-01-15T06:11:53;99758.50;;;0.03;100.00
20909;BME280;10614;53.198;6.570;2024-01-15T06:13:58;99796.16;;;0.20;100.00
20909;BME280;10614;53.198;6.570;2024-01-15T06:16:02;99790.16;;;0.18;100.00
20909;BME280;10614;53.198;6.570;2024-01-15T06:18:05;99801.41;;;0.16;100.00
20909;BME280;10614;53.198;6.570;2024-01-15T06:20:08;99791.09;;;0.14;100.00
20909;BME280;10614;53.198;6.570;2024-01-15T06:22:10;99793.69;;;0.14;100.00
20909;BME280;10614;53.198;6.570;2024-01-15T06:24:12;99785.09;;;0.12;100.00
20909;BME280;10614;53.198;6.570;2024-01-15T06:26:15;99789.34;;;0.15;100.00
20909;BME280;10614;53.198;6.570;2024-01-15T06:28:18;99778.19;;;0.11;100.00
20909;BME280;10614;53.198;6.570;2024-01-15T06:30:22;99789.31;;;0.18;100.00
20909;BME280;10614;53.198;6.570;2024-01-15T06:32:24;99791.03;;;0.17;100.00
20909;BME280;10614;53.198;6.570;2024-01-15T06:34:26;99781.47;;;0.21;100.00
20909;BME280;10614;53.198;6.570;2024-01-15T06:36:28;99774.56;;;0.23;100.00
20909;BME280;10614;53.198;6.570;2024-01-15T06:38:30;99768.47;;;0.26;100.00
20909;BME280;10614;53.198;6.570;2024-01-15T06:40:33;99790.84;;;0.30;100.00
20909;BME280;10614;53.198;6.570;2024-01-15T06:42:35;99787.41;;;0.31;100.00
20909;BME280;10614;53.198;6.570;2024-01-15T06:44:37;99796.03;;;0.31;100.00
20909;BME280;10614;53.198;6.570;2024-01-15T06:46:43;99794.28;;;0.32;100.00
20909;BME280;10614;53.198;6.570;2024-01-15T06:48:45;99790.91;;;0.28;100.00
20909;BME280;10614;53.198;6.570;2024-01-15T06:50:47;99786.56;;;0.27;100.00
20909;BME280;10614;53.198;6.570;2024-01-15T06:52:48;99776.34;;;0.19;100.00
20909;BME280;10614;53.198;6.570;2024-01-15T06:54:50;99786.56;;;0.27;100.00
20909;BME280;10614;53.198;6.570;2024-01-15T06:56:52;99784.91;;;0.23;100.00
20909;BME280;10614;53.198;6.570;2024-01-15T06:58:54;99780.63;;;0.22;100.00
20909;BME280;10614;53.198;6.570;2024-01-15T07:00:55;99783.22;;;0.22;100.00
20909;BME280;10614;53.198;6.570;2024-01-15T07:02:59;99767.75;;;0.17;100.00
20909;BME280;10614;53.198;6.570;2024-01-15T07:05:01;99777.97;;;0.25;100.00
20909;BME280;10614;53.198;6.570;2024-01-15T07:07:05;99803.84;;;0.28;100.00
20909;BME280;10614;53.198;6.570;2024-01-15T07:09:12;99807.28;;;0.27;100.00
20909;BME280;10614;53.198;6.570;2024-01-15T07:11:18;99796.94;;;0.27;100.00
20909;BME280;10614;53.198;6.570;2024-01-15T07:13:19;99791.75;;;0.26;100.00
20909;BME280;10614;53.198;6.570;2024-01-15T07:15:21;99787.50;;;0.23;100.00
20909;BME280;10614;53.198;6.570;2024-01-15T07:17:23;99771.31;;;0.10;100.00
20909;BME280;10614;53.198;6.570;2024-01-15T07:19:26;99792.66;;;0.23;100.00
20909;BME280;10614;53.198;6.570;2024-01-15T07:21:28;99792.66;;;0.23;100.00
20909;BME280;10614;53.198;6.570;2024-01-15T07:23:31;99786.72;;;0.18;100.00
20909;BME280;10614;53.198;6.570;2024-01-15T07:25:33;99776.63;;;-0.01;100.00
20909;BME280;10614;53.198;6.570;2024-01-15T07:27:35;99792.97;;;0.03;100.00
20909;BME280;10614;53.198;6.570;2024-01-15T07:29:37;99775.94;;;-0.13;100.00
20909;BME280;10614;53.198;6.570;2024-01-15T07:31:39;99762.31;;;-0.26;100.00
20909;BME280;10614;53.198;6.570;2024-01-15T07:33:40;99787.97;;;-0.11;100.00
20909;BME280;10614;53.198;6.570;2024-01-15T07:35:45;99756.41;;;-0.36;100.00
20909;BME280;10614;53.198;6.570;2024-01-15T07:37:47;99751.22;;;-0.34;100.00
20909;BME280;10614;53.198;6.570;2024-01-15T07:39:49;99786.41;;;-0.21;100.00
20909;BME280;10614;53.198;6.570;2024-01-15T07:41:55;99775.34;;;-0.32;100.00
20909;BME280;10614;53.198;6.570;2024-01-15T07:43:57;99767.63;;;-0.37;100.00
20909;BME280;10614;53.198;6.570;2024-01-15T07:46:01;99793.34;;;-0.26;100.00
20909;BME280;10614;53.198;6.570;2024-01-15T07:48:05;99800.19;;;-0.24;100.00
20909;BME280;10614;53.198;6.570;2024-01-15T07:50:07;99808.75;;;-0.17;100.00
20909;BME280;10614;53.198;6.570;2024-01-15T07:52:12;99789.00;;;-0.21;100.00
20909;BME280;10614;53.198;6.570;2024-01-15T07:54:14;99793.22;;;-0.15;100.00
20909;BME280;10614;53.198;6.570;2024-01-15T07:56:16;99781.97;;;-0.13;100.00
20909;BME280;10614;53.198;6.570;2024-01-15T07:58:18;99755.50;;;-0.30;100.00
20909;BME280;10614;53.198;6.570;2024-01-15T08:00:20;99769.22;;;-0.28;100.00
20909;BME280;10614;53.198;6.570;2024-01-15T08:02:21;99802.72;;;-0.16;100.00
20909;BME280;10614;53.198;6.570;2024-01-15T08:04:22;99795.91;;;-0.23;100.00
20909;BME280;10614;53.198;6.570;2024-01-15T08:06:24;99796.75;;;-0.23;100.00
20909;BME280;10614;53.198;6.570;2024-01-15T08:08:27;99770.19;;;-0.35;100.00
20909;BME280;10614;53.198;6.570;2024-01-15T08:10:29;99789.84;;;-0.24;100.00
20909;BME280;10614;53.198;6.570;2024-01-15T08:12:31;99794.13;;;-0.19;100.00
20909;BME280;10614;53.198;6.570;2024-01-15T08:14:33;99791.53;;;-0.16;100.00
20909;BME280;10614;53.198;6.570;2024-01-15T08:16:35;99767.53;;;-0.29;100.00
20909;BME280;10614;53.198;6.570;2024-01-15T08:18:37;99791.53;;;-0.18;100.00
20909;BME280;10614;53.198;6.570;2024-01-15T08:20:39;99781.19;;;-0.18;100.00
20909;BME280;10614;53.198;6.570;2024-01-15T08:22:42;99752.09;;;-0.35;100.00
20909;BME280;10614;53.198;6.570;2024-01-15T08:24:45;99770.06;;;-0.25;100.00
20909;BME280;10614;53.198;6.570;2024-01-15T08:26:47;99788.09;;;-0.20;100.00
20909;BME280;10614;53.198;6.570;2024-01-15T08:28:50;99794.16;;;-0.21;100.00
20909;BME280;10614;53.198;6.570;2024-01-15T08:30:52;99787.19;;;-0.16;100.00
20909;BME280;10614;53.198;6.570;2024-01-15T08:32:55;99789.69;;;-0.10;100.00
20909;BME280;10614;53.198;6.570;2024-01-15T08:34:57;99767.47;;;-0.25;100.00
20909;BME280;10614;53.198;6.570;2024-01-15T08:36:59;99786.16;;;-0.04;100.00
20909;BME280;10614;53.198;6.570;2024-01-15T08:39:02;99755.38;;;-0.21;100.00
20909;BME280;10614;53.198;6.570;2024-01-15T08:41:08;99792.06;;;0.06;100.00
20909;BME280;10614;53.198;6.570;2024-01-15T08:43:09;99785.22;;;0.02;100.00
20909;BME280;10614;53.198;6.570;2024-01-15T08:45:10;99778.41;;;-0.04;100.00
20909;BME280;10614;53.198;6.570;2024-01-15T08:47:12;99792.91;;;0.06;100.00
20909;BME280;10614;53.198;6.570;2024-01-15T08:49:14;99779.00;;;0.13;100.00
20909;BME280;10614;53.198;6.570;2024-01-15T08:51:16;99799.44;;;0.32;100.00
20909;BME280;10614;53.198;6.570;2024-01-15T08:53:18;99795.06;;;0.37;100.00
20909;BME280;10614;53.198;6.570;2024-01-15T08:55:20;99809.59;;;0.46;100.00
20909;BME280;10614;53.198;6.570;2024-01-15T08:57:24;99812.84;;;0.60;100.00
20909;BME280;10614;53.198;6.570;2024-01-15T08:59:26;99799.81;;;0.63;100.00
20909;BME280;10614;53.198;6.570;2024-01-15T09:01:38;99799.03;;;0.59;100.00
20909;BME280;10614;53.198;6.570;2024-01-15T09:03:40;99793.84;;;0.61;100.00
20909;BME280;10614;53.198;6.570;2024-01-15T09:05:43;99788.81;;;0.52;100.00
20909;BME280;10614;53.198;6.570;2024-01-15T09:07:46;99784.41;;;0.57;100.00
20909;BME280;10614;53.198;6.570;2024-01-15T09:09:47;99777.56;;;0.53;100.00
20909;BME280;10614;53.198;6.570;2024-01-15T09:11:52;99789.50;;;0.61;100.00
20909;BME280;10614;53.198;6.570;2024-01-15T09:13:55;99785.19;;;0.62;100.00
20909;BME280;10614;53.198;6.570;2024-01-15T09:16:00;99787.84;;;0.56;100.00
20909;BME280;10614;53.198;6.570;2024-01-15T09:18:02;99785.25;;;0.59;100.00
20909;BME280;10614;53.198;6.570;2024-01-15T09:20:06;99776.56;;;0.61;100.00
20909;BME280;10614;53.198;6.570;2024-01-15T09:22:10;99783.41;;;0.64;100.00
20909;BME280;10614;53.198;6.570;2024-01-15T09:24:13;99779.09;;;0.65;100.00
20909;BME280;10614;53.198;6.570;2024-01-15T09:26:15;99740.47;;;0.51;100.00
20909;BME280;10614;53.198;6.570;2024-01-15T09:28:17;99778.19;;;0.67;100.00
20909;BME280;10614;53.198;6.570;2024-01-15T09:30:24;99788.47;;;0.70;100.00
20909;BME280;10614;53.198;6.570;2024-01-15T09:32:26;99772.16;;;0.65;100.00
20909;BME280;10614;53.198;6.570;2024-01-15T09:34:26;99777.19;;;0.74;100.00
20909;BME280;10614;53.198;6.570;2024-01-15T09:36:30;99784.09;;;0.75;100.00
20909;BME280;10614;53.198;6.570;2024-01-15T09:38:32;99777.25;;;0.71;100.00
20909;BME280;10614;53.198;6.570;2024-01-15T09:40:36;99787.63;;;0.71;100.00
20909;BME280;10614;53.198;6.570;2024-01-15T09:42:40;99781.63;;;0.68;100.00
20909;BME280;10614;53.198;6.570;2024-01-15T09:44:48;99779.00;;;0.69;100.00
20909;BME280;10614;53.198;6.570;2024-01-15T09:46:55;99791.13;;;0.67;100.00
20909;BME280;10614;53.198;6.570;2024-01-15T09:48:57;99767.91;;;0.62;100.00
20909;BME280;10614;53.198;6.570;2024-01-15T09:51:01;99766.97;;;0.68;100.00
20909;BME280;10614;53.198;6.570;2024-01-15T09:53:03;99778.94;;;0.75;100.00
20909;BME280;10614;53.198;6.570;2024-01-15T09:55:11;99753.94;;;0.71;100.00
20909;BME280;10614;53.198;6.570;2024-01-15T09:57:14;99728.13;;;0.67;100.00
20909;BME280;10614;53.198;6.570;2024-01-15T09:59:16;99756.38;;;0.82;100.00
20909;BME280;10614;53.198;6.570;2024-01-15T10:01:20;99764.78;;;0.93;100.00
20909;BME280;10614;53.198;6.570;2024-01-15T10:09:25;99741.91;;;0.67;100.00
20909;BME280;10614;53.198;6.570;2024-01-15T10:54:13;99742.94;;;1.08;100.00
20909;BME280;10614;53.198;6.570;2024-01-15T10:56:16;99776.38;;;1.22;100.00
20909;BME280;10614;53.198;6.570;2024-01-15T10:58:20;99729.31;;;0.95;100.00
20909;BME280;10614;53.198;6.570;2024-01-15T11:00:25;99787.69;;;1.16;100.00
20909;BME280;10614;53.198;6.570;2024-01-15T11:02:35;99757.91;;;0.91;100.00
20909;BME280;10614;53.198;6.570;2024-01-15T11:04:37;99783.66;;;1.00;100.00
20909;BME280;10614;53.198;6.570;2024-01-15T11:06:46;99725.53;;;0.68;100.00
20909;BME280;10614;53.198;6.570;2024-01-15T11:09:02;99737.41;;;0.80;100.00
20909;BME280;10614;53.198;6.570;2024-01-15T11:11:16;99760.72;;;0.78;100.00
20909;BME280;10614;53.198;6.570;2024-01-15T11:13:40;99713.72;;;0.50;100.00
20909;BME280;10614;53.198;6.570;2024-01-15T11:16:04;99783.06;;;0.86;100.00
20909;BME280;10614;53.198;6.570;2024-01-15T11:18:09;99770.94;;;0.86;100.00
20909;BME280;10614;53.198;6.570;2024-01-15T11:20:11;99757.22;;;0.82;100.00
20909;BME280;10614;53.198;6.570;2024-01-15T11:22:48;99777.09;;;0.82;100.00
20909;BME280;10614;53.198;6.570;2024-01-15T11:24:50;99761.78;;;0.68;100.00
20909;BME280;10614;53.198;6.570;2024-01-15T11:26:54;99786.63;;;0.80;100.00
20909;BME280;10614;53.198;6.570;2024-01-15T11:28:59;99787.47;;;0.80;100.00
20909;BME280;10614;53.198;6.570;2024-01-15T11:31:00;99791.66;;;0.89;100.00
20909;BME280;10614;53.198;6.570;2024-01-15T11:33:04;99770.09;;;0.86;100.00
20909;BME280;10614;53.198;6.570;2024-01-15T11:35:07;99797.13;;;1.19;100.00
20909;BME280;10614;53.198;6.570;2024-01-15T11:37:15;99776.69;;;1.03;100.00
20909;BME280;10614;53.198;6.570;2024-01-15T11:39:41;99810.94;;;1.19;100.00
20909;BME280;10614;53.198;6.570;2024-01-15T11:41:47;99769.94;;;0.93;100.00